Airfield :
LOGIN :

Register | Disclaimer

   EN    FR    IT 

 










Legend :    VFR   Marginal VFR   IFR   Intensive IFR   Very Intensive IFR
Visi :
Ceiling :
>= 8 km
>= 3000ft
5 to 8 km
1000 to 3000 ft
1500m to 5 km
500 to 1000 ft
800 to 1500m
200 to 500 ft
< 800m
< 200 ft
Symbols :   Thunderstorms  Fog  Heavy snow  Heavy precipitations  Wind > 20 kt
SIGMETs :     Misc.  Thunderstorms  Icing  Turbulence  Mountain Waves  Volcanic Ashes







- Airport Elevation : 84 ft
- Download approach charts


LFBC - Cazaux

CURRENT METAR :
  • 220030Z AUTO 19006KT CAVOK 18/16 Q1014 NOSIG

EXPIRED METARs :
  • 220000Z AUTO 18008KT CAVOK 18/16 Q1014 NOSIG
  • 212330Z AUTO 20008KT CAVOK 18/15 Q1014 NOSIG
  • 212300Z AUTO 22009KT CAVOK 18/15 Q1014 NOSIG
  • 212230Z AUTO 22008KT 9999 FEW022 BKN240 19/15 Q1014 NOSIG
  • 212200Z AUTO 22008KT 9999 FEW022 SCT028 BKN044 19/15 Q1014 NOSIG

TAF TAF LFBC
Valid from the 21 at 21:00 until the 22 at 21:00 UTC


212000Z 2121/2221 26005KT 9999 SCT040
TEMPO 2209/2218 5000 SHRA BKN012 SCT020TCU BKN040
No reported NOTAMs for that airfield.



MET'MAP, your aeronautical weather chart ! - Copyright ORBIFLY December 2007 - Disclaimer

ORBIFLY MET'MAP TEAM :

Programming & Development : Alexandra Zaïnal
Concept & Development : Baudouin d'Aumeries
Co-Development & Prog : Marc-Olivier Méhu
Technical & hardware support : Manuel Goepfert

Contact : metmap@orbifly.com




SOURCES & CREDITS :

   NOAA